sensor_id;sensor_type;location;lat;lon;timestamp;P1;durP1;ratioP1;P2;durP2;ratioP2
37299;SDS011;23184;51.902;12.836;2024-01-11T00:00:04;80.03;;;26.77;;
37299;SDS011;23184;51.902;12.836;2024-01-11T00:02:30;75.80;;;27.25;;
37299;SDS011;23184;51.902;12.836;2024-01-11T00:04:55;81.30;;;26.27;;
37299;SDS011;23184;51.902;12.836;2024-01-11T00:07:21;74.28;;;26.70;;
37299;SDS011;23184;51.902;12.836;2024-01-11T00:09:46;79.15;;;26.67;;
37299;SDS011;23184;51.902;12.836;2024-01-11T00:12:12;80.05;;;26.20;;
37299;SDS011;23184;51.902;12.836;2024-01-11T00:14:38;78.07;;;27.10;;
37299;SDS011;23184;51.902;12.836;2024-01-11T00:17:03;83.25;;;27.20;;
37299;SDS011;23184;51.902;12.836;2024-01-11T00:19:29;77.20;;;26.33;;
37299;SDS011;23184;51.902;12.836;2024-01-11T00:21:54;78.18;;;26.40;;
37299;SDS011;23184;51.902;12.836;2024-01-11T00:24:20;83.22;;;27.17;;
37299;SDS011;23184;51.902;12.836;2024-01-11T00:26:45;77.13;;;25.77;;
37299;SDS011;23184;51.902;12.836;2024-01-11T00:29:11;77.20;;;26.08;;
37299;SDS011;23184;51.902;12.836;2024-01-11T00:31:36;79.50;;;26.48;;
37299;SDS011;23184;51.902;12.836;2024-01-11T00:34:03;73.20;;;24.85;;
37299;SDS011;23184;51.902;12.836;2024-01-11T00:36:29;67.90;;;24.42;;
37299;SDS011;23184;51.902;12.836;2024-01-11T00:38:54;79.10;;;24.95;;
37299;SDS011;23184;51.902;12.836;2024-01-11T00:41:20;78.53;;;27.27;;
37299;SDS011;23184;51.902;12.836;2024-01-11T00:43:45;70.85;;;25.08;;
37299;SDS011;23184;51.902;12.836;2024-01-11T00:46:11;75.07;;;25.85;;
37299;SDS011;23184;51.902;12.836;2024-01-11T00:48:37;75.82;;;24.77;;
37299;SDS011;23184;51.902;12.836;2024-01-11T00:51:05;80.13;;;25.48;;
37299;SDS011;23184;51.902;12.836;2024-01-11T00:53:31;71.00;;;25.98;;
37299;SDS011;23184;51.902;12.836;2024-01-11T00:55:57;87.07;;;25.80;;
37299;SDS011;23184;51.902;12.836;2024-01-11T00:58:23;72.22;;;24.77;;
37299;SDS011;23184;51.902;12.836;2024-01-11T01:00:48;72.68;;;25.45;;
37299;SDS011;23184;51.902;12.836;2024-01-11T01:03:14;65.47;;;21.50;;
37299;SDS011;23184;51.902;12.836;2024-01-11T01:05:41;77.57;;;24.27;;
37299;SDS011;23184;51.902;12.836;2024-01-11T01:08:07;67.82;;;23.45;;
37299;SDS011;23184;51.902;12.836;2024-01-11T01:10:32;72.63;;;26.08;;
37299;SDS011;23184;51.902;12.836;2024-01-11T01:12:58;70.10;;;23.90;;
37299;SDS011;23184;51.902;12.836;2024-01-11T01:15:23;63.20;;;22.38;;
37299;SDS011;23184;51.902;12.836;2024-01-11T01:17:49;70.55;;;24.13;;
37299;SDS011;23184;51.902;12.836;2024-01-11T01:20:14;72.50;;;23.63;;
37299;SDS011;23184;51.902;12.836;2024-01-11T01:22:40;68.50;;;23.35;;
37299;SDS011;23184;51.902;12.836;2024-01-11T01:25:06;71.10;;;24.75;;
37299;SDS011;23184;51.902;12.836;2024-01-11T01:27:31;66.85;;;22.92;;
37299;SDS011;23184;51.902;12.836;2024-01-11T01:29:57;60.92;;;20.50;;
37299;SDS011;23184;51.902;12.836;2024-01-11T01:32:22;72.43;;;24.05;;
37299;SDS011;23184;51.902;12.836;2024-01-11T01:34:48;66.03;;;22.88;;
37299;SDS011;23184;51.902;12.836;2024-01-11T01:37:13;72.38;;;24.17;;
37299;SDS011;23184;51.902;12.836;2024-01-11T01:39:39;75.32;;;25.55;;
37299;SDS011;23184;51.902;12.836;2024-01-11T01:42:05;89.85;;;28.30;;
37299;SDS011;23184;51.902;12.836;2024-01-11T01:44:31;80.50;;;24.52;;
37299;SDS011;23184;51.902;12.836;2024-01-11T01:46:57;83.38;;;29.10;;
37299;SDS011;23184;51.902;12.836;2024-01-11T01:49:23;84.57;;;28.15;;
37299;SDS011;23184;51.902;12.836;2024-01-11T01:51:49;71.60;;;24.95;;
37299;SDS011;23184;51.902;12.836;2024-01-11T01:54:15;84.25;;;27.92;;
37299;SDS011;23184;51.902;12.836;2024-01-11T01:56:42;90.22;;;27.83;;
37299;SDS011;23184;51.902;12.836;2024-01-11T01:59:07;79.53;;;26.60;;
37299;SDS011;23184;51.902;12.836;2024-01-11T02:01:35;77.60;;;26.40;;
37299;SDS011;23184;51.902;12.836;2024-01-11T02:04:01;84.30;;;25.60;;
37299;SDS011;23184;51.902;12.836;2024-01-11T02:06:26;73.03;;;24.27;;
37299;SDS011;23184;51.902;12.836;2024-01-11T02:08:55;70.95;;;24.77;;
37299;SDS011;23184;51.902;12.836;2024-01-11T02:11:21;71.63;;;24.10;;
37299;SDS011;23184;51.902;12.836;2024-01-11T02:13:49;69.60;;;24.23;;
37299;SDS011;23184;51.902;12.836;2024-01-11T02:16:32;72.32;;;25.30;;
37299;SDS011;23184;51.902;12.836;2024-01-11T02:18:58;71.97;;;24.33;;
37299;SDS011;23184;51.902;12.836;2024-01-11T02:21:24;70.65;;;24.92;;
37299;SDS011;23184;51.902;12.836;2024-01-11T02:24:02;74.03;;;25.00;;
37299;SDS011;23184;51.902;12.836;2024-01-11T02:26:28;74.18;;;25.80;;
37299;SDS011;23184;51.902;12.836;2024-01-11T02:28:54;71.13;;;25.27;;
37299;SDS011;23184;51.902;12.836;2024-01-11T02:31:19;82.07;;;27.63;;
37299;SDS011;23184;51.902;12.836;2024-01-11T02:33:45;75.35;;;25.83;;
37299;SDS011;23184;51.902;12.836;2024-01-11T02:36:11;73.72;;;26.38;;
37299;SDS011;23184;51.902;12.836;2024-01-11T02:38:38;72.72;;;23.98;;
37299;SDS011;23184;51.902;12.836;2024-01-11T02:41:06;73.80;;;22.58;;
37299;SDS011;23184;51.902;12.836;2024-01-11T02:43:33;71.20;;;24.80;;
37299;SDS011;23184;51.902;12.836;2024-01-11T02:46:00;74.00;;;24.48;;
37299;SDS011;23184;51.902;12.836;2024-01-11T02:48:27;66.43;;;23.23;;
37299;SDS011;23184;51.902;12.836;2024-01-11T02:50:53;82.43;;;26.05;;
37299;SDS011;23184;51.902;12.836;2024-01-11T02:53:19;81.85;;;27.58;;
37299;SDS011;23184;51.902;12.836;2024-01-11T02:55:44;73.97;;;24.60;;
37299;SDS011;23184;51.902;12.836;2024-01-11T02:58:10;80.50;;;25.58;;
37299;SDS011;23184;51.902;12.836;2024-01-11T03:00:35;78.30;;;24.33;;
37299;SDS011;23184;51.902;12.836;2024-01-11T03:03:00;74.90;;;24.73;;
37299;SDS011;23184;51.902;12.836;2024-01-11T03:05:26;72.45;;;26.70;;
37299;SDS011;23184;51.902;12.836;2024-01-11T03:07:51;81.18;;;26.15;;
37299;SDS011;23184;51.902;12.836;2024-01-11T03:10:17;79.97;;;25.00;;
37299;SDS011;23184;51.902;12.836;2024-01-11T03:12:42;71.88;;;23.52;;
37299;SDS011;23184;51.902;12.836;2024-01-11T03:15:08;73.40;;;24.02;;
37299;SDS011;23184;51.902;12.836;2024-01-11T03:17:34;79.95;;;24.45;;
37299;SDS011;23184;51.902;12.836;2024-01-11T03:19:59;77.32;;;25.77;;
37299;SDS011;23184;51.902;12.836;2024-01-11T03:22:25;80.05;;;27.17;;
37299;SDS011;23184;51.902;12.836;2024-01-11T03:24:51;76.60;;;25.50;;
37299;SDS011;23184;51.902;12.836;2024-01-11T03:27:16;73.78;;;25.58;;
37299;SDS011;23184;51.902;12.836;2024-01-11T03:29:42;85.45;;;25.90;;
37299;SDS011;23184;51.902;12.836;2024-01-11T03:32:07;72.75;;;25.42;;
37299;SDS011;23184;51.902;12.836;2024-01-11T03:34:33;73.90;;;25.45;;
37299;SDS011;23184;51.902;12.836;2024-01-11T03:36:58;77.22;;;25.25;;
37299;SDS011;23184;51.902;12.836;2024-01-11T03:39:25;66.93;;;23.77;;
37299;SDS011;23184;51.902;12.836;2024-01-11T03:41:50;70.82;;;25.35;;
37299;SDS011;23184;51.902;12.836;2024-01-11T03:44:16;75.78;;;24.00;;
37299;SDS011;23184;51.902;12.836;2024-01-11T03:46:41;74.50;;;24.13;;
37299;SDS011;23184;51.902;12.836;2024-01-11T03:49:07;74.63;;;24.60;;
37299;SDS011;23184;51.902;12.836;2024-01-11T03:51:33;71.55;;;25.40;;
37299;SDS011;23184;51.902;12.836;2024-01-11T03:53:59;77.18;;;26.55;;
37299;SDS011;23184;51.902;12.836;2024-01-11T03:56:25;77.13;;;24.35;;
37299;SDS011;23184;51.902;12.836;2024-01-11T03:58:50;77.45;;;24.90;;
37299;SDS011;23184;51.902;12.836;2024-01-11T04:01:16;82.97;;;27.58;;
37299;SDS011;23184;51.902;12.836;2024-01-11T04:03:41;82.85;;;27.17;;
37299;SDS011;23184;51.902;12.836;2024-01-11T04:06:07;75.45;;;25.55;;
37299;SDS011;23184;51.902;12.836;2024-01-11T04:08:32;78.53;;;26.63;;
37299;SDS011;23184;51.902;12.836;2024-01-11T04:10:58;80.88;;;25.98;;
37299;SDS011;23184;51.902;12.836;2024-01-11T04:13:26;74.40;;;27.20;;
37299;SDS011;23184;51.902;12.836;2024-01-11T04:15:52;73.85;;;26.15;;
37299;SDS011;23184;51.902;12.836;2024-01-11T04:18:17;87.13;;;27.73;;
37299;SDS011;23184;51.902;12.836;2024-01-11T04:20:42;84.15;;;26.52;;
37299;SDS011;23184;51.902;12.836;2024-01-11T04:23:08;72.18;;;24.13;;
37299;SDS011;23184;51.902;12.836;2024-01-11T04:25:34;77.00;;;25.42;;
37299;SDS011;23184;51.902;12.836;2024-01-11T04:28:00;76.93;;;23.80;;
37299;SDS011;23184;51.902;12.836;2024-01-11T04:30:25;76.85;;;24.73;;
37299;SDS011;23184;51.902;12.836;2024-01-11T04:32:51;64.18;;;24.25;;
37299;SDS011;23184;51.902;12.836;2024-01-11T04:35:16;78.85;;;26.50;;
37299;SDS011;23184;51.902;12.836;2024-01-11T04:37:42;76.60;;;25.33;;
37299;SDS011;23184;51.902;12.836;2024-01-11T04:40:07;74.53;;;25.10;;
37299;SDS011;23184;51.902;12.836;2024-01-11T04:42:33;75.32;;;24.45;;
37299;SDS011;23184;51.902;12.836;2024-01-11T04:44:59;77.60;;;25.20;;
37299;SDS011;23184;51.902;12.836;2024-01-11T04:47:24;75.63;;;27.10;;
37299;SDS011;23184;51.902;12.836;2024-01-11T04:49:49;79.47;;;25.67;;
37299;SDS011;23184;51.902;12.836;2024-01-11T04:52:15;77.97;;;27.33;;
37299;SDS011;23184;51.902;12.836;2024-01-11T04:54:40;74.22;;;25.80;;
37299;SDS011;23184;51.902;12.836;2024-01-11T04:57:06;101.28;;;32.72;;
37299;SDS011;23184;51.902;12.836;2024-01-11T04:59:32;79.88;;;26.55;;
37299;SDS011;23184;51.902;12.836;2024-01-11T05:01:57;75.80;;;27.70;;
37299;SDS011;23184;51.902;12.836;2024-01-11T05:04:23;85.38;;;29.25;;
37299;SDS011;23184;51.902;12.836;2024-01-11T05:06:48;73.63;;;25.73;;
37299;SDS011;23184;51.902;12.836;2024-01-11T05:09:15;75.55;;;26.27;;
37299;SDS011;23184;51.902;12.836;2024-01-11T05:11:41;81.10;;;27.42;;
37299;SDS011;23184;51.902;12.836;2024-01-11T05:14:06;84.05;;;26.95;;
37299;SDS011;23184;51.902;12.836;2024-01-11T05:16:32;88.03;;;27.75;;
37299;SDS011;23184;51.902;12.836;2024-01-11T05:18:57;87.22;;;26.60;;
37299;SDS011;23184;51.902;12.836;2024-01-11T05:21:23;83.13;;;27.55;;
37299;SDS011;23184;51.902;12.836;2024-01-11T05:23:49;68.72;;;26.33;;
37299;SDS011;23184;51.902;12.836;2024-01-11T05:26:15;76.20;;;27.33;;
37299;SDS011;23184;51.902;12.836;2024-01-11T05:28:41;87.30;;;28.00;;
37299;SDS011;23184;51.902;12.836;2024-01-11T05:31:07;82.97;;;27.55;;
37299;SDS011;23184;51.902;12.836;2024-01-11T05:33:36;71.45;;;25.85;;
37299;SDS011;23184;51.902;12.836;2024-01-11T05:36:02;72.35;;;24.83;;
37299;SDS011;23184;51.902;12.836;2024-01-11T05:38:28;77.80;;;24.88;;
37299;SDS011;23184;51.902;12.836;2024-01-11T05:40:54;72.55;;;25.45;;
37299;SDS011;23184;51.902;12.836;2024-01-11T05:43:19;72.43;;;26.90;;
37299;SDS011;23184;51.902;12.836;2024-01-11T05:45:44;75.20;;;26.10;;
37299;SDS011;23184;51.902;12.836;2024-01-11T05:48:10;74.90;;;28.52;;
37299;SDS011;23184;51.902;12.836;2024-01-11T05:50:36;75.18;;;25.88;;
37299;SDS011;23184;51.902;12.836;2024-01-11T05:53:02;86.68;;;28.38;;
37299;SDS011;23184;51.902;12.836;2024-01-11T05:55:27;75.25;;;27.13;;
37299;SDS011;23184;51.902;12.836;2024-01-11T05:57:53;75.57;;;28.20;;
37299;SDS011;23184;51.902;12.836;2024-01-11T06:00:19;82.10;;;27.38;;
37299;SDS011;23184;51.902;12.836;2024-01-11T06:02:45;94.15;;;27.77;;
37299;SDS011;23184;51.902;12.836;2024-01-11T06:05:10;87.50;;;29.25;;
37299;SDS011;23184;51.902;12.836;2024-01-11T06:07:37;84.53;;;29.88;;
37299;SDS011;23184;51.902;12.836;2024-01-11T06:10:03;77.38;;;28.10;;
37299;SDS011;23184;51.902;12.836;2024-01-11T06:12:30;79.72;;;29.55;;
37299;SDS011;23184;51.902;12.836;2024-01-11T06:14:56;90.13;;;29.25;;
37299;SDS011;23184;51.902;12.836;2024-01-11T06:17:22;98.55;;;28.92;;
37299;SDS011;23184;51.902;12.836;2024-01-11T06:19:48;85.00;;;28.60;;
37299;SDS011;23184;51.902;12.836;2024-01-11T06:22:14;81.88;;;28.88;;
37299;SDS011;23184;51.902;12.836;2024-01-11T06:24:39;78.88;;;28.55;;
37299;SDS011;23184;51.902;12.836;2024-01-11T06:27:05;85.07;;;28.40;;
37299;SDS011;23184;51.902;12.836;2024-01-11T06:29:30;88.70;;;29.10;;
37299;SDS011;23184;51.902;12.836;2024-01-11T06:31:56;83.47;;;29.05;;
37299;SDS011;23184;51.902;12.836;2024-01-11T06:34:21;87.22;;;29.35;;
37299;SDS011;23184;51.902;12.836;2024-01-11T06:36:47;77.32;;;26.98;;
37299;SDS011;23184;51.902;12.836;2024-01-11T06:39:12;79.75;;;28.50;;
37299;SDS011;23184;51.902;12.836;2024-01-11T06:41:38;75.03;;;27.30;;
37299;SDS011;23184;51.902;12.836;2024-01-11T06:44:03;86.72;;;28.98;;
37299;SDS011;23184;51.902;12.836;2024-01-11T06:46:29;86.65;;;29.75;;
37299;SDS011;23184;51.902;12.836;2024-01-11T06:48:55;83.70;;;27.40;;
37299;SDS011;23184;51.902;12.836;2024-01-11T06:51:21;78.78;;;27.25;;
37299;SDS011;23184;51.902;12.836;2024-01-11T06:53:48;85.88;;;27.90;;
37299;SDS011;23184;51.902;12.836;2024-01-11T06:56:18;86.95;;;28.08;;
37299;SDS011;23184;51.902;12.836;2024-01-11T06:58:45;82.60;;;26.52;;
37299;SDS011;23184;51.902;12.836;2024-01-11T07:01:12;77.22;;;28.02;;
37299;SDS011;23184;51.902;12.836;2024-01-11T07:03:45;78.88;;;28.33;;
37299;SDS011;23184;51.902;12.836;2024-01-11T07:06:15;81.30;;;27.60;;
37299;SDS011;23184;51.902;12.836;2024-01-11T07:08:41;85.20;;;26.60;;
37299;SDS011;23184;51.902;12.836;2024-01-11T07:11:12;79.78;;;26.83;;
37299;SDS011;23184;51.902;12.836;2024-01-11T07:13:37;86.60;;;27.00;;
37299;SDS011;23184;51.902;12.836;2024-01-11T07:16:05;82.95;;;27.55;;
37299;SDS011;23184;51.902;12.836;2024-01-11T07:18:35;76.43;;;25.60;;
37299;SDS011;23184;51.902;12.836;2024-01-11T07:21:09;79.88;;;27.30;;
37299;SDS011;23184;51.902;12.836;2024-01-11T07:24:15;82.78;;;26.73;;
37299;SDS011;23184;51.902;12.836;2024-01-11T07:26:43;90.13;;;30.38;;
37299;SDS011;23184;51.902;12.836;2024-01-11T07:29:11;85.53;;;27.17;;
37299;SDS011;23184;51.902;12.836;2024-01-11T07:31:46;83.05;;;27.52;;
37299;SDS011;23184;51.902;12.836;2024-01-11T07:34:24;83.25;;;28.20;;
37299;SDS011;23184;51.902;12.836;2024-01-11T07:36:53;81.93;;;28.88;;
37299;SDS011;23184;51.902;12.836;2024-01-11T07:39:35;90.95;;;30.48;;
37299;SDS011;23184;51.902;12.836;2024-01-11T07:43:30;90.75;;;28.08;;
37299;SDS011;23184;51.902;12.836;2024-01-11T07:46:52;76.90;;;26.02;;
37299;SDS011;23184;51.902;12.836;2024-01-11T07:49:36;76.75;;;26.23;;
37299;SDS011;23184;51.902;12.836;2024-01-11T07:52:21;86.55;;;29.48;;
37299;SDS011;23184;51.902;12.836;2024-01-11T07:58:19;82.57;;;26.00;;
37299;SDS011;23184;51.902;12.836;2024-01-11T08:01:15;88.22;;;28.70;;
37299;SDS011;23184;51.902;12.836;2024-01-11T08:03:44;87.03;;;28.48;;
37299;SDS011;23184;51.902;12.836;2024-01-11T08:06:12;75.93;;;26.25;;
37299;SDS011;23184;51.902;12.836;2024-01-11T08:09:03;70.20;;;25.08;;
37299;SDS011;23184;51.902;12.836;2024-01-11T08:11:30;78.28;;;27.45;;
37299;SDS011;23184;51.902;12.836;2024-01-11T08:14:06;80.40;;;27.42;;
37299;SDS011;23184;51.902;12.836;2024-01-11T08:17:00;79.10;;;28.77;;
37299;SDS011;23184;51.902;12.836;2024-01-11T08:19:54;69.03;;;23.20;;
37299;SDS011;23184;51.902;12.836;2024-01-11T08:22:28;63.55;;;22.65;;
37299;SDS011;23184;51.902;12.836;2024-01-11T08:24:59;64.55;;;22.73;;
37299;SDS011;23184;51.902;12.836;2024-01-11T08:34:33;53.42;;;19.50;;
37299;SDS011;23184;51.902;12.836;2024-01-11T08:37:03;58.00;;;19.83;;
37299;SDS011;23184;51.902;12.836;2024-01-11T08:39:35;52.05;;;18.67;;
37299;SDS011;23184;51.902;12.836;2024-01-11T08:42:14;58.53;;;19.42;;
37299;SDS011;23184;51.902;12.836;2024-01-11T08:44:53;50.10;;;16.65;;
37299;SDS011;23184;51.902;12.836;2024-01-11T08:47:35;44.90;;;16.20;;
37299;SDS011;23184;51.902;12.836;2024-01-11T08:50:03;44.22;;;14.73;;
37299;SDS011;23184;51.902;12.836;2024-01-11T08:52:31;37.72;;;14.30;;
37299;SDS011;23184;51.902;12.836;2024-01-11T08:54:58;38.90;;;13.77;;
37299;SDS011;23184;51.902;12.836;2024-01-11T08:57:23;35.92;;;13.50;;
37299;SDS011;23184;51.902;12.836;2024-01-11T08:59:49;41.60;;;16.10;;
37299;SDS011;23184;51.902;12.836;2024-01-11T09:02:15;39.60;;;14.60;;
37299;SDS011;23184;51.902;12.836;2024-01-11T09:04:40;40.60;;;14.80;;
37299;SDS011;23184;51.902;12.836;2024-01-11T09:07:06;42.97;;;17.23;;
37299;SDS011;23184;51.902;12.836;2024-01-11T09:09:31;40.55;;;14.60;;
37299;SDS011;23184;51.902;12.836;2024-01-11T09:11:57;40.55;;;15.43;;
37299;SDS011;23184;51.902;12.836;2024-01-11T09:14:22;39.33;;;15.52;;
37299;SDS011;23184;51.902;12.836;2024-01-11T09:16:48;44.67;;;17.52;;
37299;SDS011;23184;51.902;12.836;2024-01-11T09:19:14;42.88;;;16.00;;
37299;SDS011;23184;51.902;12.836;2024-01-11T09:21:40;48.47;;;17.92;;
37299;SDS011;23184;51.902;12.836;2024-01-11T09:24:07;44.38;;;18.02;;
37299;SDS011;23184;51.902;12.836;2024-01-11T09:26:32;47.15;;;16.83;;
37299;SDS011;23184;51.902;12.836;2024-01-11T09:28:58;44.90;;;16.30;;
37299;SDS011;23184;51.902;12.836;2024-01-11T09:31:23;42.25;;;15.85;;
37299;SDS011;23184;51.902;12.836;2024-01-11T09:33:49;41.20;;;16.23;;
37299;SDS011;23184;51.902;12.836;2024-01-11T09:36:15;40.33;;;17.90;;
37299;SDS011;23184;51.902;12.836;2024-01-11T09:38:40;44.38;;;17.73;;
37299;SDS011;23184;51.902;12.836;2024-01-11T09:41:07;42.22;;;16.27;;
37299;SDS011;23184;51.902;12.836;2024-01-11T09:43:34;49.78;;;17.55;;
37299;SDS011;23184;51.902;12.836;2024-01-11T09:46:02;43.90;;;16.65;;
37299;SDS011;23184;51.902;12.836;2024-01-11T09:48:29;37.22;;;14.77;;
37299;SDS011;23184;51.902;12.836;2024-01-11T09:51:01;42.65;;;15.43;;
37299;SDS011;23184;51.902;12.836;2024-01-11T09:53:28;38.88;;;15.75;;
37299;SDS011;23184;51.902;12.836;2024-01-11T09:55:56;36.20;;;14.52;;
37299;SDS011;23184;51.902;12.836;2024-01-11T09:58:23;39.42;;;13.68;;
37299;SDS011;23184;51.902;12.836;2024-01-11T10:00:50;38.15;;;13.73;;
37299;SDS011;23184;51.902;12.836;2024-01-11T10:03:20;30.98;;;13.68;;
37299;SDS011;23184;51.902;12.836;2024-01-11T10:05:49;38.97;;;13.43;;
37299;SDS011;23184;51.902;12.836;2024-01-11T10:08:17;24.65;;;10.55;;
37299;SDS011;23184;51.902;12.836;2024-01-11T10:10:44;24.75;;;10.40;;
37299;SDS011;23184;51.902;12.836;2024-01-11T10:13:09;27.45;;;10.30;;
37299;SDS011;23184;51.902;12.836;2024-01-11T10:15:35;25.17;;;10.07;;
37299;SDS011;23184;51.902;12.836;2024-01-11T10:18:01;23.35;;;10.02;;
37299;SDS011;23184;51.902;12.836;2024-01-11T10:20:27;24.42;;;10.07;;
37299;SDS011;23184;51.902;12.836;2024-01-11T10:22:55;22.40;;;8.75;;
37299;SDS011;23184;51.902;12.836;2024-01-11T10:25:22;23.77;;;9.25;;
37299;SDS011;23184;51.902;12.836;2024-01-11T10:27:48;22.73;;;8.57;;
37299;SDS011;23184;51.902;12.836;2024-01-11T10:30:14;28.80;;;9.40;;
37299;SDS011;23184;51.902;12.836;2024-01-11T10:32:41;26.08;;;9.55;;
37299;SDS011;23184;51.902;12.836;2024-01-11T10:35:08;22.73;;;10.18;;
37299;SDS011;23184;51.902;12.836;2024-01-11T10:37:33;24.40;;;8.98;;
37299;SDS011;23184;51.902;12.836;2024-01-11T10:40:02;23.25;;;9.15;;
37299;SDS011;23184;51.902;12.836;2024-01-11T10:42:33;23.10;;;8.25;;
37299;SDS011;23184;51.902;12.836;2024-01-11T10:45:02;20.60;;;8.23;;
37299;SDS011;23184;51.902;12.836;2024-01-11T10:47:31;24.08;;;8.93;;
37299;SDS011;23184;51.902;12.836;2024-01-11T10:49:57;24.15;;;8.88;;
37299;SDS011;23184;51.902;12.836;2024-01-11T10:52:26;22.55;;;9.27;;
37299;SDS011;23184;51.902;12.836;2024-01-11T10:54:57;21.52;;;8.45;;
37299;SDS011;23184;51.902;12.836;2024-01-11T10:57:24;23.90;;;9.23;;
37299;SDS011;23184;51.902;12.836;2024-01-11T10:59:50;22.05;;;8.95;;
37299;SDS011;23184;51.902;12.836;2024-01-11T11:02:17;21.65;;;9.25;;
37299;SDS011;23184;51.902;12.836;2024-01-11T11:04:44;24.50;;;9.00;;
37299;SDS011;23184;51.902;12.836;2024-01-11T11:07:11;23.77;;;9.48;;
37299;SDS011;23184;51.902;12.836;2024-01-11T11:09:39;26.58;;;9.32;;
37299;SDS011;23184;51.902;12.836;2024-01-11T11:12:08;20.77;;;8.60;;
37299;SDS011;23184;51.902;12.836;2024-01-11T11:14:35;27.92;;;9.65;;
37299;SDS011;23184;51.902;12.836;2024-01-11T11:17:03;20.35;;;9.50;;
37299;SDS011;23184;51.902;12.836;2024-01-11T11:19:30;22.73;;;9.32;;
37299;SDS011;23184;51.902;12.836;2024-01-11T11:21:55;26.33;;;10.25;;
37299;SDS011;23184;51.902;12.836;2024-01-11T11:24:21;20.95;;;8.85;;
37299;SDS011;23184;51.902;12.836;2024-01-11T11:26:46;24.73;;;10.32;;
37299;SDS011;23184;51.902;12.836;2024-01-11T11:29:12;27.23;;;10.32;;
37299;SDS011;23184;51.902;12.836;2024-01-11T11:31:44;25.02;;;10.65;;
37299;SDS011;23184;51.902;12.836;2024-01-11T11:34:12;22.67;;;9.65;;
37299;SDS011;23184;51.902;12.836;2024-01-11T11:36:39;20.83;;;8.32;;
37299;SDS011;23184;51.902;12.836;2024-01-11T11:39:09;24.58;;;9.27;;
37299;SDS011;23184;51.902;12.836;2024-01-11T11:41:38;23.77;;;9.68;;
37299;SDS011;23184;51.902;12.836;2024-01-11T11:44:05;23.35;;;9.70;;
37299;SDS011;23184;51.902;12.836;2024-01-11T11:46:31;24.10;;;9.15;;
37299;SDS011;23184;51.902;12.836;2024-01-11T11:48:58;25.95;;;10.85;;
37299;SDS011;23184;51.902;12.836;2024-01-11T11:51:24;23.63;;;9.60;;
37299;SDS011;23184;51.902;12.836;2024-01-11T11:53:50;27.38;;;10.18;;
37299;SDS011;23184;51.902;12.836;2024-01-11T11:56:17;29.05;;;10.98;;
37299;SDS011;23184;51.902;12.836;2024-01-11T11:58:45;22.88;;;9.45;;
37299;SDS011;23184;51.902;12.836;2024-01-11T12:01:12;21.73;;;9.25;;
37299;SDS011;23184;51.902;12.836;2024-01-11T12:03:40;23.58;;;10.20;;
37299;SDS011;23184;51.902;12.836;2024-01-11T12:06:07;25.77;;;10.25;;
37299;SDS011;23184;51.902;12.836;2024-01-11T12:08:35;25.13;;;9.90;;
37299;SDS011;23184;51.902;12.836;2024-01-11T12:11:02;20.17;;;9.88;;
37299;SDS011;23184;51.902;12.836;2024-01-11T12:13:28;22.95;;;9.88;;
37299;SDS011;23184;51.902;12.836;2024-01-11T12:15:55;25.45;;;9.63;;
37299;SDS011;23184;51.902;12.836;2024-01-11T12:18:21;24.55;;;10.00;;
37299;SDS011;23184;51.902;12.836;2024-01-11T12:20:46;27.02;;;10.90;;
37299;SDS011;23184;51.902;12.836;2024-01-11T12:23:12;36.60;;;16.00;;
37299;SDS011;23184;51.902;12.836;2024-01-11T12:25:41;53.60;;;21.05;;
37299;SDS011;23184;51.902;12.836;2024-01-11T12:28:06;87.20;;;30.35;;
37299;SDS011;23184;51.902;12.836;2024-01-11T12:30:32;23.48;;;9.98;;
37299;SDS011;23184;51.902;12.836;2024-01-11T12:32:58;20.77;;;8.05;;
37299;SDS011;23184;51.902;12.836;2024-01-11T12:35:26;18.15;;;7.93;;
37299;SDS011;23184;51.902;12.836;2024-01-11T12:37:58;18.67;;;8.57;;
37299;SDS011;23184;51.902;12.836;2024-01-11T12:40:25;18.38;;;8.10;;
37299;SDS011;23184;51.902;12.836;2024-01-11T12:42:55;19.02;;;8.32;;
37299;SDS011;23184;51.902;12.836;2024-01-11T12:45:23;19.98;;;8.88;;
37299;SDS011;23184;51.902;12.836;2024-01-11T12:47:51;17.35;;;8.18;;
37299;SDS011;23184;51.902;12.836;2024-01-11T12:50:17;16.70;;;7.15;;
37299;SDS011;23184;51.902;12.836;2024-01-11T12:52:42;17.65;;;7.68;;
37299;SDS011;23184;51.902;12.836;2024-01-11T12:55:13;18.13;;;8.02;;
37299;SDS011;23184;51.902;12.836;2024-01-11T12:57:43;15.63;;;5.72;;
37299;SDS011;23184;51.902;12.836;2024-01-11T13:00:12;12.40;;;5.75;;
37299;SDS011;23184;51.902;12.836;2024-01-11T13:02:39;12.32;;;5.03;;
37299;SDS011;23184;51.902;12.836;2024-01-11T13:05:05;14.20;;;5.78;;
37299;SDS011;23184;51.902;12.836;2024-01-11T13:07:32;15.32;;;6.55;;
37299;SDS011;23184;51.902;12.836;2024-01-11T13:09:58;12.93;;;5.50;;
37299;SDS011;23184;51.902;12.836;2024-01-11T13:12:24;15.27;;;6.65;;
37299;SDS011;23184;51.902;12.836;2024-01-11T13:14:50;15.05;;;6.15;;
37299;SDS011;23184;51.902;12.836;2024-01-11T13:17:17;17.48;;;7.60;;
37299;SDS011;23184;51.902;12.836;2024-01-11T13:19:43;17.15;;;6.78;;
37299;SDS011;23184;51.902;12.836;2024-01-11T13:22:09;19.25;;;6.82;;
37299;SDS011;23184;51.902;12.836;2024-01-11T13:24:35;19.10;;;7.28;;
37299;SDS011;23184;51.902;12.836;2024-01-11T13:27:01;17.52;;;6.28;;
37299;SDS011;23184;51.902;12.836;2024-01-11T13:29:26;16.20;;;6.80;;
37299;SDS011;23184;51.902;12.836;2024-01-11T13:31:52;18.27;;;7.10;;
37299;SDS011;23184;51.902;12.836;2024-01-11T13:34:17;20.40;;;7.35;;
37299;SDS011;23184;51.902;12.836;2024-01-11T13:36:43;19.67;;;7.50;;
37299;SDS011;23184;51.902;12.836;2024-01-11T13:39:09;24.50;;;8.73;;
37299;SDS011;23184;51.902;12.836;2024-01-11T13:41:35;23.88;;;8.57;;
37299;SDS011;23184;51.902;12.836;2024-01-11T13:44:02;23.33;;;8.25;;
37299;SDS011;23184;51.902;12.836;2024-01-11T13:46:30;24.30;;;8.27;;
37299;SDS011;23184;51.902;12.836;2024-01-11T13:48:56;27.63;;;9.10;;
37299;SDS011;23184;51.902;12.836;2024-01-11T13:51:22;29.65;;;9.93;;
37299;SDS011;23184;51.902;12.836;2024-01-11T13:53:48;28.20;;;8.85;;
37299;SDS011;23184;51.902;12.836;2024-01-11T13:56:13;25.58;;;8.98;;
37299;SDS011;23184;51.902;12.836;2024-01-11T13:58:39;28.85;;;8.80;;
37299;SDS011;23184;51.902;12.836;2024-01-11T14:01:04;27.45;;;9.73;;
37299;SDS011;23184;51.902;12.836;2024-01-11T14:03:30;25.63;;;8.85;;
37299;SDS011;23184;51.902;12.836;2024-01-11T14:05:55;30.27;;;9.23;;
37299;SDS011;23184;51.902;12.836;2024-01-11T14:08:21;51.03;;;16.98;;
37299;SDS011;23184;51.902;12.836;2024-01-11T14:10:47;32.00;;;11.77;;
37299;SDS011;23184;51.902;12.836;2024-01-11T14:13:12;31.98;;;9.48;;
37299;SDS011;23184;51.902;12.836;2024-01-11T14:15:38;32.75;;;9.88;;
37299;SDS011;23184;51.902;12.836;2024-01-11T14:18:05;31.00;;;9.20;;
37299;SDS011;23184;51.902;12.836;2024-01-11T14:20:31;31.20;;;9.20;;
37299;SDS011;23184;51.902;12.836;2024-01-11T14:22:59;33.58;;;8.80;;